sensor_id;sensor_type;location;lat;lon;timestamp;temperature;humidity
9949;DHT22;5013;51.840;8.276;2023-05-08T00:00:00;12.70;99.90
9949;DHT22;5013;51.840;8.276;2023-05-08T00:02:30;12.70;99.90
9949;DHT22;5013;51.840;8.276;2023-05-08T00:04:55;12.70;99.90
9949;DHT22;5013;51.840;8.276;2023-05-08T00:07:21;12.60;1.00
9949;DHT22;5013;51.840;8.276;2023-05-08T00:09:47;12.60;1.00
9949;DHT22;5013;51.840;8.276;2023-05-08T00:12:12;12.70;99.90
9949;DHT22;5013;51.840;8.276;2023-05-08T00:14:38;12.60;1.00
9949;DHT22;5013;51.840;8.276;2023-05-08T00:17:04;12.70;1.00
9949;DHT22;5013;51.840;8.276;2023-05-08T00:19:29;12.70;1.00
9949;DHT22;5013;51.840;8.276;2023-05-08T00:21:55;12.80;1.00
9949;DHT22;5013;51.840;8.276;2023-05-08T00:24:20;12.80;1.00
9949;DHT22;5013;51.840;8.276;2023-05-08T00:26:46;12.70;99.90
9949;DHT22;5013;51.840;8.276;2023-05-08T00:29:12;12.60;1.00
9949;DHT22;5013;51.840;8.276;2023-05-08T00:31:37;12.70;1.00
9949;DHT22;5013;51.840;8.276;2023-05-08T00:34:03;12.70;1.00
9949;DHT22;5013;51.840;8.276;2023-05-08T00:36:28;12.70;1.00
9949;DHT22;5013;51.840;8.276;2023-05-08T00:38:54;12.70;1.00
9949;DHT22;5013;51.840;8.276;2023-05-08T00:41:20;12.60;1.00
9949;DHT22;5013;51.840;8.276;2023-05-08T00:43:45;12.60;1.00
9949;DHT22;5013;51.840;8.276;2023-05-08T00:46:11;12.60;1.00
9949;DHT22;5013;51.840;8.276;2023-05-08T00:48:37;12.50;1.00
9949;DHT22;5013;51.840;8.276;2023-05-08T00:51:05;12.50;1.00
9949;DHT22;5013;51.840;8.276;2023-05-08T00:53:35;12.60;1.00
9949;DHT22;5013;51.840;8.276;2023-05-08T00:56:01;12.50;1.00
9949;DHT22;5013;51.840;8.276;2023-05-08T00:58:28;12.40;1.00
9949;DHT22;5013;51.840;8.276;2023-05-08T01:00:55;12.40;1.00
9949;DHT22;5013;51.840;8.276;2023-05-08T01:03:22;12.40;1.00
9949;DHT22;5013;51.840;8.276;2023-05-08T01:05:48;12.40;63.30
9949;DHT22;5013;51.840;8.276;2023-05-08T01:08:13;12.40;1.00
9949;DHT22;5013;51.840;8.276;2023-05-08T01:30:46;12.30;99.90
9949;DHT22;5013;51.840;8.276;2023-05-08T01:39:20;12.30;99.90
9949;DHT22;5013;51.840;8.276;2023-05-08T01:41:57;12.30;23.70
9949;DHT22;5013;51.840;8.276;2023-05-08T01:44:29;12.30;66.80
9949;DHT22;5013;51.840;8.276;2023-05-08T01:46:59;12.10;99.90
9949;DHT22;5013;51.840;8.276;2023-05-08T01:49:33;12.10;99.90
9949;DHT22;5013;51.840;8.276;2023-05-08T01:52:06;12.10;1.00
9949;DHT22;5013;51.840;8.276;2023-05-08T01:54:38;12.20;1.00
9949;DHT22;5013;51.840;8.276;2023-05-08T01:57:06;12.20;99.90
9949;DHT22;5013;51.840;8.276;2023-05-08T01:59:35;12.20;1.00
9949;DHT22;5013;51.840;8.276;2023-05-08T02:02:02;12.20;1.00
9949;DHT22;5013;51.840;8.276;2023-05-08T02:04:29;12.20;1.00
9949;DHT22;5013;51.840;8.276;2023-05-08T02:06:57;12.20;99.90
9949;DHT22;5013;51.840;8.276;2023-05-08T02:09:23;12.20;1.00
9949;DHT22;5013;51.840;8.276;2023-05-08T02:11:52;12.20;99.90
9949;DHT22;5013;51.840;8.276;2023-05-08T02:14:20;12.20;1.00
9949;DHT22;5013;51.840;8.276;2023-05-08T02:16:47;12.20;99.90
9949;DHT22;5013;51.840;8.276;2023-05-08T02:19:14;12.20;99.90
9949;DHT22;5013;51.840;8.276;2023-05-08T02:21:41;12.20;1.00
9949;DHT22;5013;51.840;8.276;2023-05-08T02:24:08;12.10;1.00
9949;DHT22;5013;51.840;8.276;2023-05-08T02:26:36;12.20;1.00
9949;DHT22;5013;51.840;8.276;2023-05-08T02:29:02;12.20;1.00
9949;DHT22;5013;51.840;8.276;2023-05-08T02:31:29;12.10;1.00
9949;DHT22;5013;51.840;8.276;2023-05-08T02:33:56;12.20;1.00
9949;DHT22;5013;51.840;8.276;2023-05-08T02:36:22;12.10;1.00
9949;DHT22;5013;51.840;8.276;2023-05-08T02:38:50;12.10;1.00
9949;DHT22;5013;51.840;8.276;2023-05-08T02:41:19;12.20;1.00
9949;DHT22;5013;51.840;8.276;2023-05-08T02:43:47;12.10;1.00
9949;DHT22;5013;51.840;8.276;2023-05-08T02:49:12;12.10;1.00
9949;DHT22;5013;51.840;8.276;2023-05-08T02:51:53;12.10;1.00
9949;DHT22;5013;51.840;8.276;2023-05-08T02:57:17;12.10;1.00
9949;DHT22;5013;51.840;8.276;2023-05-08T02:59:55;12.10;1.00
9949;DHT22;5013;51.840;8.276;2023-05-08T03:02:31;12.10;1.00
9949;DHT22;5013;51.840;8.276;2023-05-08T03:05:05;12.10;1.00
9949;DHT22;5013;51.840;8.276;2023-05-08T03:07:36;12.00;1.00
9949;DHT22;5013;51.840;8.276;2023-05-08T03:10:04;12.00;1.00
9949;DHT22;5013;51.840;8.276;2023-05-08T03:12:33;12.00;1.00
9949;DHT22;5013;51.840;8.276;2023-05-08T03:15:03;12.00;99.90
9949;DHT22;5013;51.840;8.276;2023-05-08T03:17:32;12.00;1.00
9949;DHT22;5013;51.840;8.276;2023-05-08T03:20:01;12.00;50.90
9949;DHT22;5013;51.840;8.276;2023-05-08T03:22:30;12.00;1.00
9949;DHT22;5013;51.840;8.276;2023-05-08T03:24:59;12.00;1.00
9949;DHT22;5013;51.840;8.276;2023-05-08T03:27:28;11.90;5.20
9949;DHT22;5013;51.840;8.276;2023-05-08T03:29:54;11.90;99.90
9949;DHT22;5013;51.840;8.276;2023-05-08T03:32:22;11.90;1.00
9949;DHT22;5013;51.840;8.276;2023-05-08T03:34:49;11.90;99.90
9949;DHT22;5013;51.840;8.276;2023-05-08T03:37:15;11.90;99.90
9949;DHT22;5013;51.840;8.276;2023-05-08T03:39:40;11.90;1.00
9949;DHT22;5013;51.840;8.276;2023-05-08T03:42:06;11.90;59.70
9949;DHT22;5013;51.840;8.276;2023-05-08T03:44:32;12.00;17.60
9949;DHT22;5013;51.840;8.276;2023-05-08T03:46:58;11.90;69.30
9949;DHT22;5013;51.840;8.276;2023-05-08T03:49:25;11.90;99.90
9949;DHT22;5013;51.840;8.276;2023-05-08T03:51:52;12.00;99.90
9949;DHT22;5013;51.840;8.276;2023-05-08T03:54:19;12.10;99.90
9949;DHT22;5013;51.840;8.276;2023-05-08T03:56:50;12.10;1.00
9949;DHT22;5013;51.840;8.276;2023-05-08T03:59:23;12.10;99.90
9949;DHT22;5013;51.840;8.276;2023-05-08T04:01:56;12.20;1.00
9949;DHT22;5013;51.840;8.276;2023-05-08T04:04:38;12.20;1.00
9949;DHT22;5013;51.840;8.276;2023-05-08T04:09:50;12.10;1.00
9949;DHT22;5013;51.840;8.276;2023-05-08T04:15:11;12.10;1.00
9949;DHT22;5013;51.840;8.276;2023-05-08T04:17:44;12.10;1.00
9949;DHT22;5013;51.840;8.276;2023-05-08T04:20:15;12.10;1.00
9949;DHT22;5013;51.840;8.276;2023-05-08T04:22:42;12.10;1.00
9949;DHT22;5013;51.840;8.276;2023-05-08T04:25:10;12.20;1.00
9949;DHT22;5013;51.840;8.276;2023-05-08T04:27:37;12.20;1.00
9949;DHT22;5013;51.840;8.276;2023-05-08T04:30:04;12.30;1.00
9949;DHT22;5013;51.840;8.276;2023-05-08T04:32:30;12.40;99.90
9949;DHT22;5013;51.840;8.276;2023-05-08T04:34:58;12.50;99.90
9949;DHT22;5013;51.840;8.276;2023-05-08T04:37:25;12.50;99.90
9949;DHT22;5013;51.840;8.276;2023-05-08T04:39:53;12.60;99.90
9949;DHT22;5013;51.840;8.276;2023-05-08T04:42:19;12.60;1.00
9949;DHT22;5013;51.840;8.276;2023-05-08T04:44:45;12.60;99.90
9949;DHT22;5013;51.840;8.276;2023-05-08T04:47:12;12.60;99.90
9949;DHT22;5013;51.840;8.276;2023-05-08T04:49:38;12.70;1.00
9949;DHT22;5013;51.840;8.276;2023-05-08T04:52:04;12.60;1.00
9949;DHT22;5013;51.840;8.276;2023-05-08T04:54:30;12.80;1.00
9949;DHT22;5013;51.840;8.276;2023-05-08T04:56:56;12.80;1.00
9949;DHT22;5013;51.840;8.276;2023-05-08T04:59:22;12.80;1.00
9949;DHT22;5013;51.840;8.276;2023-05-08T05:01:49;12.80;1.00
9949;DHT22;5013;51.840;8.276;2023-05-08T05:04:15;12.70;1.00
9949;DHT22;5013;51.840;8.276;2023-05-08T05:06:40;12.80;1.00
9949;DHT22;5013;51.840;8.276;2023-05-08T05:09:06;12.90;1.00
9949;DHT22;5013;51.840;8.276;2023-05-08T05:11:32;12.90;1.00
9949;DHT22;5013;51.840;8.276;2023-05-08T05:13:58;12.90;1.00
9949;DHT22;5013;51.840;8.276;2023-05-08T05:16:24;13.00;3.60
9949;DHT22;5013;51.840;8.276;2023-05-08T05:18:49;13.00;99.90
9949;DHT22;5013;51.840;8.276;2023-05-08T05:21:15;13.20;1.00
9949;DHT22;5013;51.840;8.276;2023-05-08T05:23:40;13.40;99.90
9949;DHT22;5013;51.840;8.276;2023-05-08T05:26:06;13.50;99.90
9949;DHT22;5013;51.840;8.276;2023-05-08T05:28:32;13.70;99.90
9949;DHT22;5013;51.840;8.276;2023-05-08T05:30:57;13.90;1.00
9949;DHT22;5013;51.840;8.276;2023-05-08T05:33:23;14.10;1.00
9949;DHT22;5013;51.840;8.276;2023-05-08T05:35:49;14.30;1.00
9949;DHT22;5013;51.840;8.276;2023-05-08T05:38:14;14.30;1.00
9949;DHT22;5013;51.840;8.276;2023-05-08T05:40:40;14.60;1.00
9949;DHT22;5013;51.840;8.276;2023-05-08T05:43:05;14.90;1.00
9949;DHT22;5013;51.840;8.276;2023-05-08T05:45:31;15.10;1.00
9949;DHT22;5013;51.840;8.276;2023-05-08T05:47:57;15.20;99.90
9949;DHT22;5013;51.840;8.276;2023-05-08T05:50:22;15.10;99.90
9949;DHT22;5013;51.840;8.276;2023-05-08T05:52:48;15.00;1.00
9949;DHT22;5013;51.840;8.276;2023-05-08T05:55:14;15.10;99.90
9949;DHT22;5013;51.840;8.276;2023-05-08T05:57:40;15.40;1.00
9949;DHT22;5013;51.840;8.276;2023-05-08T06:00:06;16.00;99.90
9949;DHT22;5013;51.840;8.276;2023-05-08T06:02:32;16.40;1.00
9949;DHT22;5013;51.840;8.276;2023-05-08T06:05:01;17.10;1.00
9949;DHT22;5013;51.840;8.276;2023-05-08T06:07:27;17.50;99.90
9949;DHT22;5013;51.840;8.276;2023-05-08T06:09:52;17.60;99.90
9949;DHT22;5013;51.840;8.276;2023-05-08T06:12:18;18.00;99.90
9949;DHT22;5013;51.840;8.276;2023-05-08T06:14:44;18.20;99.90
9949;DHT22;5013;51.840;8.276;2023-05-08T06:17:10;18.50;99.90
9949;DHT22;5013;51.840;8.276;2023-05-08T06:19:36;18.40;99.90
9949;DHT22;5013;51.840;8.276;2023-05-08T06:22:02;18.50;99.90
9949;DHT22;5013;51.840;8.276;2023-05-08T06:24:27;18.40;99.90
9949;DHT22;5013;51.840;8.276;2023-05-08T06:26:53;17.90;99.90
9949;DHT22;5013;51.840;8.276;2023-05-08T06:29:18;18.10;99.90
9949;DHT22;5013;51.840;8.276;2023-05-08T06:31:44;17.90;99.90
9949;DHT22;5013;51.840;8.276;2023-05-08T06:34:10;17.20;1.00
9949;DHT22;5013;51.840;8.276;2023-05-08T06:36:35;17.20;1.00
9949;DHT22;5013;51.840;8.276;2023-05-08T06:39:03;17.00;1.00
9949;DHT22;5013;51.840;8.276;2023-05-08T06:41:30;16.80;1.00
9949;DHT22;5013;51.840;8.276;2023-05-08T06:43:56;16.50;1.00
9949;DHT22;5013;51.840;8.276;2023-05-08T06:46:21;16.60;1.00
9949;DHT22;5013;51.840;8.276;2023-05-08T06:48:47;16.50;1.00
9949;DHT22;5013;51.840;8.276;2023-05-08T06:51:12;16.20;99.90
9949;DHT22;5013;51.840;8.276;2023-05-08T06:53:38;16.10;99.90
9949;DHT22;5013;51.840;8.276;2023-05-08T06:56:03;16.10;99.90
9949;DHT22;5013;51.840;8.276;2023-05-08T06:58:30;16.10;99.90
9949;DHT22;5013;51.840;8.276;2023-05-08T07:00:59;16.20;1.00
9949;DHT22;5013;51.840;8.276;2023-05-08T07:03:26;16.20;99.90
9949;DHT22;5013;51.840;8.276;2023-05-08T07:05:52;16.40;1.00
9949;DHT22;5013;51.840;8.276;2023-05-08T07:08:18;16.40;99.90
9949;DHT22;5013;51.840;8.276;2023-05-08T07:10:43;16.40;99.90
9949;DHT22;5013;51.840;8.276;2023-05-08T07:13:09;16.50;99.90
9949;DHT22;5013;51.840;8.276;2023-05-08T07:15:35;16.40;99.90
9949;DHT22;5013;51.840;8.276;2023-05-08T07:18:01;16.30;99.90
9949;DHT22;5013;51.840;8.276;2023-05-08T07:20:26;16.10;1.00
9949;DHT22;5013;51.840;8.276;2023-05-08T07:22:52;16.10;1.00
9949;DHT22;5013;51.840;8.276;2023-05-08T07:25:17;16.10;1.00
9949;DHT22;5013;51.840;8.276;2023-05-08T07:27:43;16.10;1.00
9949;DHT22;5013;51.840;8.276;2023-05-08T07:30:09;16.10;1.00
9949;DHT22;5013;51.840;8.276;2023-05-08T07:32:35;16.20;1.00
9949;DHT22;5013;51.840;8.276;2023-05-08T07:35:02;16.10;1.00
9949;DHT22;5013;51.840;8.276;2023-05-08T07:37:30;16.20;1.00
9949;DHT22;5013;51.840;8.276;2023-05-08T07:39:56;16.30;1.00
9949;DHT22;5013;51.840;8.276;2023-05-08T07:42:22;16.40;1.00
9949;DHT22;5013;51.840;8.276;2023-05-08T07:44:47;16.40;1.00
9949;DHT22;5013;51.840;8.276;2023-05-08T07:47:13;16.50;1.00
9949;DHT22;5013;51.840;8.276;2023-05-08T07:49:38;16.50;1.00
9949;DHT22;5013;51.840;8.276;2023-05-08T07:52:04;16.70;1.00
9949;DHT22;5013;51.840;8.276;2023-05-08T07:54:29;16.80;1.00
9949;DHT22;5013;51.840;8.276;2023-05-08T07:56:55;16.90;1.00
9949;DHT22;5013;51.840;8.276;2023-05-08T07:59:20;17.10;1.00
9949;DHT22;5013;51.840;8.276;2023-05-08T08:01:46;17.30;1.00
9949;DHT22;5013;51.840;8.276;2023-05-08T08:04:12;17.60;99.90
9949;DHT22;5013;51.840;8.276;2023-05-08T08:06:39;18.00;46.30
9949;DHT22;5013;51.840;8.276;2023-05-08T08:09:04;18.00;1.00
9949;DHT22;5013;51.840;8.276;2023-05-08T08:11:30;18.20;1.00
9949;DHT22;5013;51.840;8.276;2023-05-08T08:13:55;18.30;1.00
9949;DHT22;5013;51.840;8.276;2023-05-08T08:16:21;18.30;1.00
9949;DHT22;5013;51.840;8.276;2023-05-08T08:18:47;18.20;1.00
9949;DHT22;5013;51.840;8.276;2023-05-08T08:21:12;18.10;99.90
9949;DHT22;5013;51.840;8.276;2023-05-08T08:23:38;18.50;1.00
9949;DHT22;5013;51.840;8.276;2023-05-08T08:26:03;18.90;1.00
9949;DHT22;5013;51.840;8.276;2023-05-08T08:28:29;19.10;1.00
9949;DHT22;5013;51.840;8.276;2023-05-08T08:30:55;19.30;1.00
9949;DHT22;5013;51.840;8.276;2023-05-08T08:33:20;19.60;1.00
9949;DHT22;5013;51.840;8.276;2023-05-08T08:35:46;19.30;1.00
9949;DHT22;5013;51.840;8.276;2023-05-08T08:38:11;19.30;1.00
9949;DHT22;5013;51.840;8.276;2023-05-08T08:40:38;19.60;1.00
9949;DHT22;5013;51.840;8.276;2023-05-08T08:43:04;19.30;1.00
9949;DHT22;5013;51.840;8.276;2023-05-08T08:45:30;19.60;1.00
9949;DHT22;5013;51.840;8.276;2023-05-08T08:48:01;19.50;1.00
9949;DHT22;5013;51.840;8.276;2023-05-08T08:50:30;19.30;1.00
9949;DHT22;5013;51.840;8.276;2023-05-08T08:53:24;19.40;1.00
9949;DHT22;5013;51.840;8.276;2023-05-08T08:55:51;19.30;1.00
9949;DHT22;5013;51.840;8.276;2023-05-08T08:58:31;19.10;1.00
9949;DHT22;5013;51.840;8.276;2023-05-08T09:00:59;19.00;1.00
9949;DHT22;5013;51.840;8.276;2023-05-08T09:03:25;19.10;99.90
9949;DHT22;5013;51.840;8.276;2023-05-08T09:05:52;19.30;1.00
9949;DHT22;5013;51.840;8.276;2023-05-08T09:08:18;19.30;20.80
9949;DHT22;5013;51.840;8.276;2023-05-08T09:10:45;19.70;1.00
9949;DHT22;5013;51.840;8.276;2023-05-08T09:13:11;20.10;1.00
9949;DHT22;5013;51.840;8.276;2023-05-08T09:15:36;20.50;99.90
9949;DHT22;5013;51.840;8.276;2023-05-08T09:18:02;20.50;99.90
9949;DHT22;5013;51.840;8.276;2023-05-08T09:20:28;20.80;99.90
9949;DHT22;5013;51.840;8.276;2023-05-08T09:22:54;20.60;99.90
9949;DHT22;5013;51.840;8.276;2023-05-08T09:25:20;21.00;99.90
9949;DHT22;5013;51.840;8.276;2023-05-08T09:27:46;21.20;99.90
9949;DHT22;5013;51.840;8.276;2023-05-08T09:30:12;20.80;99.90
9949;DHT22;5013;51.840;8.276;2023-05-08T09:32:41;21.00;99.90
9949;DHT22;5013;51.840;8.276;2023-05-08T09:35:08;20.90;99.90
9949;DHT22;5013;51.840;8.276;2023-05-08T09:37:40;21.00;99.90
9949;DHT22;5013;51.840;8.276;2023-05-08T09:40:20;20.90;1.00
9949;DHT22;5013;51.840;8.276;2023-05-08T09:42:48;20.80;1.00
9949;DHT22;5013;51.840;8.276;2023-05-08T09:45:40;20.50;1.00
9949;DHT22;5013;51.840;8.276;2023-05-08T09:48:09;20.60;1.00
9949;DHT22;5013;51.840;8.276;2023-05-08T09:50:35;20.90;99.90
9949;DHT22;5013;51.840;8.276;2023-05-08T09:53:00;20.80;1.00
9949;DHT22;5013;51.840;8.276;2023-05-08T09:55:26;20.80;1.00
9949;DHT22;5013;51.840;8.276;2023-05-08T09:57:58;20.50;1.00
9949;DHT22;5013;51.840;8.276;2023-05-08T10:00:25;20.60;1.00
9949;DHT22;5013;51.840;8.276;2023-05-08T10:02:59;21.10;1.00
9949;DHT22;5013;51.840;8.276;2023-05-08T10:05:32;21.30;99.90
9949;DHT22;5013;51.840;8.276;2023-05-08T10:08:21;21.50;1.00
9949;DHT22;5013;51.840;8.276;2023-05-08T10:10:47;21.20;99.90
9949;DHT22;5013;51.840;8.276;2023-05-08T10:13:12;21.10;99.90
9949;DHT22;5013;51.840;8.276;2023-05-08T10:15:41;21.20;99.90
9949;DHT22;5013;51.840;8.276;2023-05-08T10:18:07;21.40;99.90
9949;DHT22;5013;51.840;8.276;2023-05-08T10:20:37;21.80;99.90
9949;DHT22;5013;51.840;8.276;2023-05-08T10:23:06;22.20;99.90
9949;DHT22;5013;51.840;8.276;2023-05-08T10:25:36;23.00;99.90
9949;DHT22;5013;51.840;8.276;2023-05-08T10:28:15;23.40;8.30
9949;DHT22;5013;51.840;8.276;2023-05-08T10:30:46;23.40;93.40
9949;DHT22;5013;51.840;8.276;2023-05-08T10:33:14;23.30;46.70
9949;DHT22;5013;51.840;8.276;2023-05-08T10:35:41;23.50;27.60
9949;DHT22;5013;51.840;8.276;2023-05-08T10:38:10;22.30;99.90
9949;DHT22;5013;51.840;8.276;2023-05-08T10:40:37;21.50;1.00
9949;DHT22;5013;51.840;8.276;2023-05-08T10:43:04;21.30;1.00
9949;DHT22;5013;51.840;8.276;2023-05-08T10:45:32;21.10;1.00
9949;DHT22;5013;51.840;8.276;2023-05-08T10:51:07;21.70;1.00
9949;DHT22;5013;51.840;8.276;2023-05-08T10:53:43;22.60;99.90
9949;DHT22;5013;51.840;8.276;2023-05-08T10:56:10;23.40;99.90
9949;DHT22;5013;51.840;8.276;2023-05-08T10:58:36;23.70;21.80
9949;DHT22;5013;51.840;8.276;2023-05-08T11:03:42;23.80;92.10
9949;DHT22;5013;51.840;8.276;2023-05-08T11:06:08;23.70;76.40
9949;DHT22;5013;51.840;8.276;2023-05-08T11:08:51;24.00;42.00
9949;DHT22;5013;51.840;8.276;2023-05-08T11:11:31;24.00;25.30
9949;DHT22;5013;51.840;8.276;2023-05-08T11:14:12;24.20;11.20
9949;DHT22;5013;51.840;8.276;2023-05-08T11:19:25;24.00;57.50
9949;DHT22;5013;51.840;8.276;2023-05-08T11:25:09;23.70;99.90
9949;DHT22;5013;51.840;8.276;2023-05-08T11:27:50;23.70;48.50
9949;DHT22;5013;51.840;8.276;2023-05-08T11:45:59;23.00;99.90
9949;DHT22;5013;51.840;8.276;2023-05-08T11:48:25;23.00;1.00
9949;DHT22;5013;51.840;8.276;2023-05-08T11:50:50;23.10;99.90
9949;DHT22;5013;51.840;8.276;2023-05-08T11:53:17;23.10;99.90
9949;DHT22;5013;51.840;8.276;2023-05-08T11:55:47;22.90;99.90
9949;DHT22;5013;51.840;8.276;2023-05-08T11:58:17;23.00;99.90
9949;DHT22;5013;51.840;8.276;2023-05-08T12:00:43;23.30;99.90
9949;DHT22;5013;51.840;8.276;2023-05-08T12:03:18;23.90;99.90
9949;DHT22;5013;51.840;8.276;2023-05-08T12:05:44;24.20;92.60
9949;DHT22;5013;51.840;8.276;2023-05-08T12:08:10;24.40;99.90
9949;DHT22;5013;51.840;8.276;2023-05-08T12:15:42;24.50;1.00
9949;DHT22;5013;51.840;8.276;2023-05-08T12:18:07;24.70;1.00
9949;DHT22;5013;51.840;8.276;2023-05-08T12:20:33;24.70;1.00
9949;DHT22;5013;51.840;8.276;2023-05-08T12:23:01;24.60;1.00
9949;DHT22;5013;51.840;8.276;2023-05-08T12:25:27;24.70;1.00
9949;DHT22;5013;51.840;8.276;2023-05-08T12:27:53;24.50;1.00
9949;DHT22;5013;51.840;8.276;2023-05-08T12:30:18;24.70;1.00
9949;DHT22;5013;51.840;8.276;2023-05-08T12:32:45;24.60;1.00
9949;DHT22;5013;51.840;8.276;2023-05-08T12:35:12;24.60;1.00
9949;DHT22;5013;51.840;8.276;2023-05-08T12:37:39;24.60;1.00
9949;DHT22;5013;51.840;8.276;2023-05-08T12:40:05;24.70;1.00
9949;DHT22;5013;51.840;8.276;2023-05-08T12:42:47;24.70;1.00
9949;DHT22;5013;51.840;8.276;2023-05-08T12:45:37;24.50;1.00
9949;DHT22;5013;51.840;8.276;2023-05-08T12:48:05;23.80;1.00
9949;DHT22;5013;51.840;8.276;2023-05-08T12:50:39;23.60;74.20
9949;DHT22;5013;51.840;8.276;2023-05-08T12:53:06;23.40;99.90
9949;DHT22;5013;51.840;8.276;2023-05-08T12:55:34;23.20;99.90
9949;DHT22;5013;51.840;8.276;2023-05-08T12:58:05;23.10;99.90
9949;DHT22;5013;51.840;8.276;2023-05-08T13:00:42;23.20;99.90
9949;DHT22;5013;51.840;8.276;2023-05-08T13:03:10;23.20;99.90
9949;DHT22;5013;51.840;8.276;2023-05-08T13:05:39;23.40;99.90
9949;DHT22;5013;51.840;8.276;2023-05-08T13:08:07;23.40;99.90
9949;DHT22;5013;51.840;8.276;2023-05-08T13:10:54;23.70;99.90
9949;DHT22;5013;51.840;8.276;2023-05-08T13:13:25;24.10;64.60
9949;DHT22;5013;51.840;8.276;2023-05-08T13:15:52;24.40;5.40
9949;DHT22;5013;51.840;8.276;2023-05-08T13:18:19;24.70;1.00
9949;DHT22;5013;51.840;8.276;2023-05-08T13:20:45;24.40;43.60
9949;DHT22;5013;51.840;8.276;2023-05-08T13:23:11;24.40;1.00
9949;DHT22;5013;51.840;8.276;2023-05-08T13:25:37;24.70;1.00
9949;DHT22;5013;51.840;8.276;2023-05-08T13:28:04;24.70;1.00
9949;DHT22;5013;51.840;8.276;2023-05-08T13:30:29;24.20;1.00
9949;DHT22;5013;51.840;8.276;2023-05-08T13:32:55;24.30;1.00
9949;DHT22;5013;51.840;8.276;2023-05-08T13:35:22;24.50;1.00
9949;DHT22;5013;51.840;8.276;2023-05-08T13:37:48;24.40;1.00
9949;DHT22;5013;51.840;8.276;2023-05-08T13:40:14;24.60;1.00
9949;DHT22;5013;51.840;8.276;2023-05-08T13:42:40;24.70;1.00
9949;DHT22;5013;51.840;8.276;2023-05-08T13:45:08;24.60;1.00
9949;DHT22;5013;51.840;8.276;2023-05-08T13:47:35;24.20;1.00
9949;DHT22;5013;51.840;8.276;2023-05-08T13:50:01;24.30;1.00
9949;DHT22;5013;51.840;8.276;2023-05-08T13:52:27;24.40;1.00
9949;DHT22;5013;51.840;8.276;2023-05-08T13:54:56;24.60;1.00
9949;DHT22;5013;51.840;8.276;2023-05-08T13:57:22;24.60;1.00
9949;DHT22;5013;51.840;8.276;2023-05-08T13:59:48;24.60;1.00
9949;DHT22;5013;51.840;8.276;2023-05-08T14:02:14;24.60;1.00
9949;DHT22;5013;51.840;8.276;2023-05-08T14:04:40;24.40;1.00
9949;DHT22;5013;51.840;8.276;2023-05-08T14:07:05;24.10;1.00
9949;DHT22;5013;51.840;8.276;2023-05-08T14:09:31;24.30;1.00
9949;DHT22;5013;51.840;8.276;2023-05-08T14:11:57;23.90;50.50
9949;DHT22;5013;51.840;8.276;2023-05-08T14:14:23;23.70;99.90
9949;DHT22;5013;51.840;8.276;2023-05-08T14:16:48;23.50;99.90
9949;DHT22;5013;51.840;8.276;2023-05-08T14:19:15;23.40;99.90
9949;DHT22;5013;51.840;8.276;2023-05-08T14:21:42;23.20;99.90
9949;DHT22;5013;51.840;8.276;2023-05-08T14:24:08;23.00;99.90
9949;DHT22;5013;51.840;8.276;2023-05-08T14:26:33;22.90;99.90
9949;DHT22;5013;51.840;8.276;2023-05-08T14:28:59;22.80;99.90
9949;DHT22;5013;51.840;8.276;2023-05-08T14:31:25;22.80;1.00
9949;DHT22;5013;51.840;8.276;2023-05-08T14:33:50;22.70;1.00
9949;DHT22;5013;51.840;8.276;2023-05-08T14:36:16;22.50;45.10
9949;DHT22;5013;51.840;8.276;2023-05-08T14:38:41;22.30;99.90
9949;DHT22;5013;51.840;8.276;2023-05-08T14:41:07;22.10;1.00
9949;DHT22;5013;51.840;8.276;2023-05-08T14:43:32;21.90;1.00
9949;DHT22;5013;51.840;8.276;2023-05-08T14:45:58;21.50;1.00
9949;DHT22;5013;51.840;8.276;2023-05-08T14:48:24;21.20;1.00
9949;DHT22;5013;51.840;8.276;2023-05-08T14:50:49;21.00;1.00
9949;DHT22;5013;51.840;8.276;2023-05-08T14:53:15;20.80;99.90
9949;DHT22;5013;51.840;8.276;2023-05-08T14:55:40;20.60;99.90
9949;DHT22;5013;51.840;8.276;2023-05-08T14:58:06;20.50;1.00
9949;DHT22;5013;51.840;8.276;2023-05-08T15:00:31;20.30;1.00
9949;DHT22;5013;51.840;8.276;2023-05-08T15:02:57;20.10;1.00
9949;DHT22;5013;51.840;8.276;2023-05-08T15:05:23;20.00;1.00
9949;DHT22;5013;51.840;8.276;2023-05-08T15:07:48;19.80;1.00
9949;DHT22;5013;51.840;8.276;2023-05-08T15:10:14;19.80;99.90
9949;DHT22;5013;51.840;8.276;2023-05-08T15:12:40;19.70;1.00
9949;DHT22;5013;51.840;8.276;2023-05-08T15:15:06;19.80;1.00
9949;DHT22;5013;51.840;8.276;2023-05-08T15:17:31;19.90;1.00
9949;DHT22;5013;51.840;8.276;2023-05-08T15:20:03;19.90;1.00
9949;DHT22;5013;51.840;8.276;2023-05-08T15:22:29;20.00;1.00
9949;DHT22;5013;51.840;8.276;2023-05-08T15:24:54;20.10;1.00
9949;DHT22;5013;51.840;8.276;2023-05-08T15:27:26;20.00;99.90
9949;DHT22;5013;51.840;8.276;2023-05-08T15:29:53;20.10;99.90
9949;DHT22;5013;51.840;8.276;2023-05-08T15:32:18;20.10;1.00
9949;DHT22;5013;51.840;8.276;2023-05-08T15:34:44;20.10;1.00
9949;DHT22;5013;51.840;8.276;2023-05-08T15:37:09;20.00;1.00
9949;DHT22;5013;51.840;8.276;2023-05-08T15:39:35;19.90;1.00
9949;DHT22;5013;51.840;8.276;2023-05-08T15:42:01;19.70;1.00
9949;DHT22;5013;51.840;8.276;2023-05-08T15:44:26;19.70;1.00
9949;DHT22;5013;51.840;8.276;2023-05-08T15:46:52;19.50;1.00
9949;DHT22;5013;51.840;8.276;2023-05-08T15:49:17;19.50;1.00
9949;DHT22;5013;51.840;8.276;2023-05-08T15:51:43;19.50;1.00
9949;DHT22;5013;51.840;8.276;2023-05-08T15:54:08;19.50;1.00
9949;DHT22;5013;51.840;8.276;2023-05-08T15:56:34;19.60;1.00
9949;DHT22;5013;51.840;8.276;2023-05-08T15:59:00;19.60;1.00
9949;DHT22;5013;51.840;8.276;2023-05-08T16:01:25;19.60;1.00
9949;DHT22;5013;51.840;8.276;2023-05-08T16:03:51;19.50;1.00
9949;DHT22;5013;51.840;8.276;2023-05-08T16:06:16;19.60;1.00
9949;DHT22;5013;51.840;8.276;2023-05-08T16:08:42;19.30;1.00
9949;DHT22;5013;51.840;8.276;2023-05-08T16:11:08;19.40;99.90
9949;DHT22;5013;51.840;8.276;2023-05-08T16:13:33;19.50;99.90
9949;DHT22;5013;51.840;8.276;2023-05-08T16:16:03;19.40;1.00
9949;DHT22;5013;51.840;8.276;2023-05-08T16:18:29;19.40;99.90
9949;DHT22;5013;51.840;8.276;2023-05-08T16:20:54;19.10;1.00
9949;DHT22;5013;51.840;8.276;2023-05-08T16:23:20;19.10;1.00
9949;DHT22;5013;51.840;8.276;2023-05-08T16:25:46;19.20;1.00
9949;DHT22;5013;51.840;8.276;2023-05-08T16:28:11;19.30;1.00
9949;DHT22;5013;51.840;8.276;2023-05-08T16:30:37;19.20;99.90
9949;DHT22;5013;51.840;8.276;2023-05-08T16:33:02;19.10;1.00
9949;DHT22;5013;51.840;8.276;2023-05-08T16:35:28;19.20;1.00
9949;DHT22;5013;51.840;8.276;2023-05-08T16:37:54;19.30;1.00
9949;DHT22;5013;51.840;8.276;2023-05-08T16:40:20;19.30;1.00
9949;DHT22;5013;51.840;8.276;2023-05-08T16:42:45;19.40;99.90
9949;DHT22;5013;51.840;8.276;2023-05-08T16:45:11;19.40;99.90
9949;DHT22;5013;51.840;8.276;2023-05-08T16:47:37;19.40;99.90
9949;DHT22;5013;51.840;8.276;2023-05-08T16:50:03;19.40;90.40
9949;DHT22;5013;51.840;8.276;2023-05-08T16:52:29;19.40;41.50
9949;DHT22;5013;51.840;8.276;2023-05-08T16:54:57;19.30;99.90
9949;DHT22;5013;51.840;8.276;2023-05-08T16:57:22;19.30;1.00
9949;DHT22;5013;51.840;8.276;2023-05-08T16:59:48;19.30;1.00
9949;DHT22;5013;51.840;8.276;2023-05-08T17:02:13;19.30;1.00
9949;DHT22;5013;51.840;8.276;2023-05-08T17:04:44;19.10;1.00
9949;DHT22;5013;51.840;8.276;2023-05-08T17:07:11;19.10;1.00
9949;DHT22;5013;51.840;8.276;2023-05-08T17:09:37;19.20;86.50
9949;DHT22;5013;51.840;8.276;2023-05-08T17:12:03;19.10;1.00
9949;DHT22;5013;51.840;8.276;2023-05-08T17:14:29;19.00;1.00
9949;DHT22;5013;51.840;8.276;2023-05-08T17:16:54;19.00;99.90
9949;DHT22;5013;51.840;8.276;2023-05-08T17:19:20;19.00;1.00
9949;DHT22;5013;51.840;8.276;2023-05-08T17:21:46;19.00;99.90